ADDS METAR Data INFO
IDs: Format: Raw Decoded Include TAF

Data at: 0730 UTC 16 Jan 2018

METAR for:KAUS (Austin/Bergstrom Int, TX, US)
Text:KAUS 160712Z 01022G28KT 5SM -RA BR BKN014 OVC021 03/03 A3052 RMK AO2 PK WND 02028/0709 P0001 T00280028
Temperature: 2.8°C ( 37°F)
Dewpoint: 2.8°C ( 37°F) [RH = 100%]
Pressure (altimeter):30.52 inches Hg (1033.6 mb)
Winds:from the N (10 degrees) at 25 MPH (22 knots; 11.3 m/s) gusting to 32 MPH (28 knots; 14.4 m/s)
Visibility: 5 sm ( 8 km)
Ceiling:1400 feet AGL
Clouds: broken clouds at 1400 feet AGL, overcast cloud deck at 2100 feet AGL
Weather:-RA BR (light rain, mist)